Time;durP1;ratioP1;P1;durP2;ratioP2;P2;SDS_P1;SDS_P2;PMS_P1;PMS_P2;Temp;Humidity;BMP_temperature;BMP_pressure;BME280_temperature;BME280_humidity;BME280_pressure;Samples;Min_cycle;Max_cycle;Signal;HPM_P1;HPM_P2
2021/12/09 00:03:06;;;;;;;98.70;36.38;;;;;;;-4.73;100.00;98876.91;5041920;28;20124;-77
2021/12/09 00:05:51;;;;;;;58.22;26.75;;;;;;;-4.63;100.00;98872.00;5053778;28;20044;-77
2021/12/09 00:08:37;;;;;;;43.72;21.75;;;;;;;-4.66;100.00;98857.47;5053070;28;20498;-77
2021/12/09 00:11:21;;;;;;;43.90;23.23;;;;;;;-4.60;100.00;98860.13;5039116;28;20473;-77
2021/12/09 00:14:06;;;;;;;43.53;22.00;;;;;;;-4.72;100.00;98857.31;5039125;28;20060;-77
2021/12/09 00:16:52;;;;;;;43.97;21.83;;;;;;;-4.66;100.00;98866.81;5054056;28;20140;-77
2021/12/09 00:19:38;;;;;;;38.58;19.95;;;;;;;-4.65;100.00;98858.31;5052918;28;20048;-77
2021/12/09 00:22:22;;;;;;;67.25;24.10;;;;;;;-4.81;100.00;98852.91;5051898;28;20048;-77
2021/12/09 00:25:07;;;;;;;67.15;29.42;;;;;;;-4.76;100.00;98843.63;5052981;28;20045;-77
2021/12/09 00:27:52;;;;;;;44.92;24.20;;;;;;;-4.68;100.00;98850.59;5053857;28;20045;-77
2021/12/09 00:30:36;;;;;;;42.38;21.58;;;;;;;-4.67;100.00;98860.84;5053389;28;20045;-77
2021/12/09 00:33:21;;;;;;;70.47;29.73;;;;;;;-4.65;100.00;98866.84;5053494;28;20431;-77
2021/12/09 00:36:06;;;;;;;42.72;22.05;;;;;;;-4.58;100.00;98865.28;5052635;28;20041;-77
2021/12/09 00:38:49;;;;;;;46.15;22.40;;;;;;;-4.62;100.00;98868.59;5053311;28;20434;-78
2021/12/09 00:41:35;;;;;;;57.97;27.85;;;;;;;-4.63;100.00;98877.09;5053170;28;20041;-77
2021/12/09 00:44:19;;;;;;;53.83;28.10;;;;;;;-4.68;100.00;98866.78;5052714;28;20427;-77
2021/12/09 00:47:04;;;;;;;65.13;30.13;;;;;;;-4.57;100.00;98869.56;5053341;28;20391;-77
2021/12/09 00:49:49;;;;;;;51.40;26.17;;;;;;;-4.66;100.00;98866.81;5052448;28;20049;-77
2021/12/09 00:52:34;;;;;;;44.67;22.60;;;;;;;-4.61;100.00;98865.25;5053125;28;20074;-77
2021/12/09 00:55:20;;;;;;;40.33;20.88;;;;;;;-4.55;100.00;98862.78;5038564;28;20057;-77
2021/12/09 00:58:04;;;;;;;47.28;25.60;;;;;;;-4.68;100.00;98856.56;5052536;28;20041;-77
2021/12/09 01:00:49;;;;;;;46.03;24.25;;;;;;;-4.59;100.00;98848.22;5038242;28;20037;-77
2021/12/09 01:03:35;;;;;;;40.83;21.15;;;;;;;-4.60;100.00;98847.38;5052991;28;20040;-77
2021/12/09 01:06:19;;;;;;;45.20;21.83;;;;;;;-4.54;100.00;98844.06;5052270;28;20116;-77
2021/12/09 01:09:05;;;;;;;49.85;24.17;;;;;;;-4.64;100.00;98845.59;5052808;28;20053;-78
2021/12/09 01:11:49;;;;;;;48.72;23.38;;;;;;;-4.54;100.00;98831.28;5052332;28;20045;-77
2021/12/09 01:14:37;;;;;;;38.60;20.65;;;;;;;-4.46;100.00;98840.81;5052819;28;20037;-77
2021/12/09 01:17:21;;;;;;;40.08;20.70;;;;;;;-4.45;100.00;98836.59;5038016;28;20041;-78
2021/12/09 01:20:08;;;;;;;40.28;21.20;;;;;;;-4.48;100.00;98833.97;5052724;28;20038;-77
2021/12/09 01:22:54;;;;;;;43.30;19.95;;;;;;;-4.54;100.00;98836.41;5052078;28;20052;-78
2021/12/09 01:25:38;;;;;;;40.10;21.60;;;;;;;-4.64;100.00;98827.69;5051886;28;20037;-77
2021/12/09 01:28:26;;;;;;;40.15;20.45;;;;;;;-4.56;100.00;98820.16;5052628;28;20450;-77
2021/12/09 01:31:18;;;;;;;41.17;20.95;;;;;;;-4.46;100.00;98822.91;5052120;28;20037;-77
2021/12/09 01:34:04;;;;;;;40.30;20.25;;;;;;;-4.61;100.00;98806.47;5055404;28;20041;-77
2021/12/09 01:36:50;;;;;;;48.15;23.75;;;;;;;-4.62;100.00;98814.94;5056150;28;20041;-77
2021/12/09 01:39:34;;;;;;;45.53;22.88;;;;;;;-4.66;100.00;98815.72;5055456;28;20102;-77
2021/12/09 01:42:20;;;;;;;44.85;24.08;;;;;;;-4.71;100.00;98808.81;5056123;28;20044;-78
2021/12/09 01:45:05;;;;;;;43.42;23.42;;;;;;;-4.58;100.00;98816.72;5055383;28;20049;-77
2021/12/09 01:47:50;;;;;;;41.92;22.08;;;;;;;-4.55;100.00;98814.22;5041275;28;20048;-77
2021/12/09 01:50:35;;;;;;;47.72;24.45;;;;;;;-4.62;100.00;98803.00;5055331;28;20038;-77
2021/12/09 01:53:19;;;;;;;46.42;22.08;;;;;;;-4.55;100.00;98810.00;5055988;28;20045;-77
2021/12/09 01:56:06;;;;;;;45.05;21.85;;;;;;;-4.67;100.00;98804.63;5055258;28;20422;-78
2021/12/09 01:58:55;;;;;;;43.17;22.58;;;;;;;-4.74;100.00;98798.53;5055099;28;20044;-77
2021/12/09 02:01:39;;;;;;;43.22;22.33;;;;;;;-4.80;100.00;98807.78;5055698;28;20441;-77
2021/12/09 02:04:27;;;;;;;52.85;24.08;;;;;;;-4.70;100.00;98813.09;5055078;28;20089;-77
2021/12/09 02:07:12;;;;;;;46.65;21.30;;;;;;;-4.63;100.00;98808.97;5055035;28;20049;-77
2021/12/09 02:09:56;;;;;;;41.35;21.60;;;;;;;-4.71;100.00;98810.53;5054822;28;20048;-77
2021/12/09 02:12:41;;;;;;;44.90;22.20;;;;;;;-4.71;100.00;98805.41;5054890;28;20048;-77
2021/12/09 02:15:26;;;;;;;40.15;20.83;;;;;;;-4.73;100.00;98807.91;5055578;28;20355;-77
2021/12/09 02:18:12;;;;;;;43.17;22.55;;;;;;;-4.70;100.00;98807.13;5055512;28;20155;-77
2021/12/09 02:21:20;;;;;;;45.72;21.77;;;;;;;-4.80;100.00;98803.53;5054682;28;20448;-77
2021/12/09 02:24:09;;;;;;;45.00;21.85;;;;;;;-4.61;100.00;98803.91;5054656;28;20403;-77
2021/12/09 02:26:53;;;;;;;44.42;22.80;;;;;;;-4.68;100.00;98809.69;5055463;28;20045;-77
2021/12/09 02:29:39;;;;;;;47.80;23.60;;;;;;;-4.78;100.00;98803.53;5055307;28;20452;-78
2021/12/09 02:32:23;;;;;;;45.08;22.08;;;;;;;-4.71;100.00;98813.94;5054707;28;20045;-77
2021/12/09 02:35:08;;;;;;;46.20;23.40;;;;;;;-4.69;100.00;98811.41;5054627;28;20041;-77
2021/12/09 02:37:53;;;;;;;45.40;21.25;;;;;;;-4.61;100.00;98819.25;5040618;28;20053;-78
2021/12/09 02:40:37;;;;;;;41.00;21.27;;;;;;;-4.71;100.00;98807.97;5054453;28;20052;-78
2021/12/09 02:43:29;;;;;;;43.45;23.65;;;;;;;-4.62;100.00;98808.13;5055169;28;20041;-78
2021/12/09 02:46:15;;;;;;;43.13;22.55;;;;;;;-4.67;100.00;98809.75;5054714;28;20105;-78
2021/12/09 02:48:59;;;;;;;39.65;20.98;;;;;;;-4.54;100.00;98826.19;5055265;28;20041;-77
2021/12/09 02:51:44;;;;;;;49.70;23.33;;;;;;;-4.60;100.00;98824.34;5040344;28;20040;-78
2021/12/09 02:54:31;;;;;;;38.22;20.05;;;;;;;-4.68;100.00;98825.88;5055084;28;20466;-78
2021/12/09 02:57:15;;;;;;;42.65;20.63;;;;;;;-4.65;100.00;98838.72;5054337;28;20041;-77
2021/12/09 03:00:00;;;;;;;41.22;21.00;;;;;;;-4.66;100.00;98836.16;5054919;28;20045;-78
2021/12/09 03:02:44;;;;;;;39.03;19.25;;;;;;;-4.65;100.00;98837.88;5054030;28;20041;-77
2021/12/09 03:05:28;;;;;;;44.88;21.50;;;;;;;-4.68;100.00;98817.38;5054112;28;20049;-78
2021/12/09 03:08:21;;;;;;;39.00;21.52;;;;;;;-4.64;100.00;98814.91;5054895;28;20041;-78
2021/12/09 03:11:08;;;;;;;46.97;21.67;;;;;;;-4.60;100.00;98813.28;5040142;28;20411;-77
2021/12/09 03:13:53;;;;;;;40.90;21.60;;;;;;;-4.60;100.00;98814.13;5054592;28;20045;-78
2021/12/09 03:16:39;;;;;;;43.88;22.08;;;;;;;-4.64;100.00;98806.41;5053912;28;20041;-78
2021/12/09 03:19:24;;;;;;;42.53;20.70;;;;;;;-4.60;100.00;98824.34;5054640;28;20097;-78
2021/12/09 03:22:09;;;;;;;45.92;22.63;;;;;;;-4.61;100.00;98829.47;5054488;28;20045;-78
2021/12/09 03:24:53;;;;;;;44.28;21.98;;;;;;;-4.56;100.00;98820.16;5054553;28;20037;-77
2021/12/09 03:27:38;;;;;;;50.85;22.42;;;;;;;-4.52;100.00;98822.84;5039845;28;20037;-78
2021/12/09 03:30:24;;;;;;;41.90;20.20;;;;;;;-4.50;100.00;98816.03;5054572;28;20041;-78
2021/12/09 03:33:08;;;;;;;49.90;22.42;;;;;;;-4.47;100.00;98820.34;5054338;28;20041;-78
2021/12/09 03:35:57;;;;;;;44.45;21.98;;;;;;;-4.53;100.00;98817.66;5053691;28;20355;-78
2021/12/09 03:38:42;;;;;;;44.25;21.88;;;;;;;-4.46;100.00;98829.72;5053578;28;20048;-78
2021/12/09 03:41:27;;;;;;;45.00;21.58;;;;;;;-4.53;100.00;98822.78;5054143;28;20041;-78
2021/12/09 03:44:12;;;;;;;39.88;20.63;;;;;;;-4.57;100.00;98824.41;5053666;28;20045;-78
2021/12/09 03:46:59;;;;;;;44.97;21.67;;;;;;;-4.54;100.00;98816.81;5054165;28;20045;-78
2021/12/09 03:49:44;;;;;;;44.20;21.00;;;;;;;-4.49;100.00;98820.31;5054063;28;20045;-78
2021/12/09 03:52:28;;;;;;;42.30;21.65;;;;;;;-4.48;100.00;98821.19;5039334;28;20385;-77
2021/12/09 03:55:13;;;;;;;38.45;20.35;;;;;;;-4.50;100.00;98817.72;5053455;28;20520;-77
2021/12/09 03:57:57;;;;;;;48.25;22.13;;;;;;;-4.40;100.00;98829.84;5039386;28;20112;-77
2021/12/09 04:00:42;;;;;;;45.53;21.80;;;;;;;-4.43;100.00;98821.28;5053199;28;20045;-78
2021/12/09 04:03:27;;;;;;;41.33;21.80;;;;;;;-4.46;100.00;98833.16;5054026;28;20126;-78
2021/12/09 04:06:12;;;;;;;47.67;22.33;;;;;;;-4.44;100.00;98828.09;5053154;28;20041;-78
2021/12/09 04:08:58;;;;;;;38.72;19.60;;;;;;;-4.37;100.00;98834.16;5053735;28;20045;-78
2021/12/09 04:11:43;;;;;;;45.83;23.52;;;;;;;-4.42;100.00;98835.75;5053666;28;20045;-78
2021/12/09 04:14:27;;;;;;;43.88;22.13;;;;;;;-4.49;100.00;98837.34;5053753;28;20041;-78
2021/12/09 04:17:12;;;;;;;42.13;22.23;;;;;;;-4.39;100.00;98829.00;5053864;28;20430;-77
2021/12/09 04:19:56;;;;;;;43.05;20.30;;;;;;;-4.36;100.00;98829.06;5039178;28;20041;-78
2021/12/09 04:22:48;;;;;;;43.20;20.67;;;;;;;-4.32;100.00;98823.19;5052913;28;20048;-77
2021/12/09 04:25:34;;;;;;;42.35;21.02;;;;;;;-4.43;100.00;98821.28;5052801;28;20041;-78
2021/12/09 04:28:19;;;;;;;40.65;21.48;;;;;;;-4.41;100.00;98833.25;5053606;28;20037;-77
2021/12/09 04:31:04;;;;;;;46.13;24.52;;;;;;;-4.36;100.00;98826.50;5038845;28;20395;-78
2021/12/09 04:33:48;;;;;;;44.83;22.33;;;;;;;-4.35;100.00;98815.47;5053437;28;20041;-78
2021/12/09 04:36:33;;;;;;;44.30;22.00;;;;;;;-4.20;100.00;98816.56;5053456;28;20037;-78
2021/12/09 04:39:17;;;;;;;47.88;23.55;;;;;;;-4.37;100.00;98816.28;5052667;28;20041;-78
2021/12/09 04:42:03;;;;;;;43.80;21.77;;;;;;;-4.36;100.00;98818.84;5053304;28;20037;-78
2021/12/09 04:44:49;;;;;;;42.80;21.27;;;;;;;-4.41;100.00;98817.06;5053288;28;20041;-78
2021/12/09 04:47:33;;;;;;;44.05;23.42;;;;;;;-4.40;100.00;98829.84;5052591;28;20044;-78
2021/12/09 04:50:17;;;;;;;46.58;23.05;;;;;;;-4.35;100.00;98838.50;5053218;28;20369;-78
2021/12/09 04:53:02;;;;;;;44.03;22.60;;;;;;;-4.24;100.00;98838.69;5052671;28;20041;-78
2021/12/09 04:55:46;;;;;;;45.67;23.05;;;;;;;-4.31;100.00;98840.25;5038800;28;20053;-78
2021/12/09 04:58:31;;;;;;;47.70;23.13;;;;;;;-4.42;100.00;98833.22;5052644;28;20129;-76
2021/12/09 05:01:16;;;;;;;49.53;23.38;;;;;;;-4.27;100.00;98847.16;5053114;28;20037;-76
2021/12/09 05:04:02;;;;;;;48.47;23.60;;;;;;;-4.35;100.00;98841.03;5038324;28;20037;-76
2021/12/09 05:06:46;;;;;;;50.38;25.10;;;;;;;-4.39;100.00;98831.56;5052269;28;20054;-76
2021/12/09 05:09:37;;;;;;;45.53;20.95;;;;;;;-4.36;100.00;98835.88;5052105;28;20045;-76
2021/12/09 05:12:21;;;;;;;48.20;23.10;;;;;;;-4.17;100.00;98837.09;5052962;28;20098;-76
2021/12/09 05:15:07;;;;;;;46.50;22.85;;;;;;;-4.36;100.00;98829.06;5052811;28;20033;-76
2021/12/09 05:17:51;;;;;;;48.63;24.02;;;;;;;-4.25;100.00;98840.38;5052947;28;20041;-76
2021/12/09 05:20:35;;;;;;;45.63;21.98;;;;;;;-4.20;100.00;98837.03;5052748;28;20427;-76
2021/12/09 05:23:22;;;;;;;39.80;20.83;;;;;;;-4.15;100.00;98833.72;5052939;28;20045;-76
2021/12/09 05:26:06;;;;;;;51.47;24.50;;;;;;;-4.19;100.00;98837.09;5052938;28;20041;-76
2021/12/09 05:28:55;;;;;;;50.58;25.30;;;;;;;-4.16;100.00;98843.91;5037925;28;20045;-76
2021/12/09 05:34:46;;;;;;;61.78;26.48;;;;;;;-4.13;100.00;98838.88;5052563;28;20049;-76
2021/12/09 05:37:30;;;;;;;53.80;25.90;;;;;;;-4.22;100.00;98849.81;5052625;28;20040;-76
2021/12/09 05:40:15;;;;;;;45.90;23.15;;;;;;;-4.12;100.00;98838.91;5052550;28;20056;-76
2021/12/09 05:42:59;;;;;;;48.33;25.65;;;;;;;-4.25;100.00;98840.38;5051872;28;20381;-76
2021/12/09 05:45:46;;;;;;;46.58;22.88;;;;;;;-4.22;100.00;98824.22;5051826;28;20048;-76
2021/12/09 05:48:31;;;;;;;48.05;25.13;;;;;;;-4.21;100.00;98827.66;5051768;28;20432;-76
2021/12/09 05:51:16;;;;;;;46.92;22.40;;;;;;;-4.10;100.00;98823.56;5051652;28;20045;-76
2021/12/09 05:54:00;;;;;;;60.40;27.40;;;;;;;-4.04;100.00;98824.53;5052411;28;20120;-76
2021/12/09 05:56:44;;;;;;;47.13;23.50;;;;;;;-4.26;100.00;98836.09;5051533;28;20449;-76
2021/12/09 05:59:29;;;;;;;52.40;24.63;;;;;;;-4.21;100.00;98838.75;5052780;28;20122;-76
2021/12/09 06:02:16;;;;;;;61.00;26.30;;;;;;;-4.16;100.00;98834.59;5051744;28;20055;-76
2021/12/09 06:05:00;;;;;;;53.25;25.33;;;;;;;-4.17;100.00;98831.97;5051769;28;20327;-76
2021/12/09 06:07:45;;;;;;;60.95;28.58;;;;;;;-4.13;100.00;98828.63;5052130;28;20041;-76
2021/12/09 06:10:30;;;;;;;54.15;28.50;;;;;;;-4.05;100.00;98845.84;5037239;28;20128;-76
2021/12/09 06:13:16;;;;;;;58.35;28.48;;;;;;;-4.08;100.00;98842.38;5051900;28;20053;-76
2021/12/09 06:16:00;;;;;;;62.33;31.02;;;;;;;-4.02;100.00;98850.16;5037531;28;20061;-76
2021/12/09 06:18:45;;;;;;;63.47;29.15;;;;;;;-4.17;100.00;98844.75;5030300;28;20125;-78
2021/12/09 06:21:29;;;;;;;52.92;24.42;;;;;;;-4.00;100.00;98854.47;5034982;28;20351;-79
2021/12/09 06:24:14;;;;;;;60.90;26.48;;;;;;;-4.00;100.00;98853.59;5034041;28;20052;-79
2021/12/09 06:26:59;;;;;;;54.72;26.23;;;;;;;-3.95;100.00;98852.00;5034193;28;20045;-79
2021/12/09 06:29:43;;;;;;;59.00;28.67;;;;;;;-3.96;100.00;98857.06;5034747;28;20478;-79
2021/12/09 06:32:28;;;;;;;53.72;27.42;;;;;;;-4.01;100.00;98859.56;5033900;28;20049;-79
2021/12/09 06:35:12;;;;;;;57.53;27.40;;;;;;;-3.91;100.00;98850.34;5033833;28;20358;-79
2021/12/09 06:37:57;;;;;;;53.35;26.00;;;;;;;-3.94;100.00;98852.84;5034571;28;20501;-79
2021/12/09 06:40:42;;;;;;;49.67;24.27;;;;;;;-3.91;100.00;98866.56;5018804;28;20106;-79
2021/12/09 06:43:27;;;;;;;60.83;27.48;;;;;;;-3.93;100.00;98863.13;5033583;28;20451;-79
2021/12/09 06:46:12;;;;;;;55.20;26.85;;;;;;;-3.92;100.00;98867.41;5034459;28;20580;-79
2021/12/09 06:48:57;;;;;;;51.28;26.05;;;;;;;-3.95;100.00;98852.00;5035179;28;20060;-79
2021/12/09 06:51:41;;;;;;;58.53;27.48;;;;;;;-4.01;100.00;98849.31;5035121;28;20049;-79
2021/12/09 06:54:26;;;;;;;58.03;25.90;;;;;;;-3.82;100.00;98853.06;5035542;28;20041;-79
2021/12/09 06:57:11;;;;;;;50.97;25.98;;;;;;;-3.91;100.00;98860.59;5020706;28;20106;-79
2021/12/09 06:59:55;;;;;;;61.97;29.17;;;;;;;-3.89;100.00;98879.38;5020737;28;20049;-79
2021/12/09 07:02:41;;;;;;;59.65;27.95;;;;;;;-3.89;100.00;98877.69;5034157;28;20048;-79
2021/12/09 07:05:26;;;;;;;60.78;28.85;;;;;;;-3.90;100.00;98881.09;5034985;28;20046;-80
2021/12/09 07:08:11;;;;;;;59.00;27.67;;;;;;;-3.86;100.00;98872.63;5034270;28;20045;-79
2021/12/09 07:10:55;;;;;;;61.08;29.90;;;;;;;-3.77;100.00;98885.59;5034927;28;20069;-80
2021/12/09 07:13:41;;;;;;;59.30;28.27;;;;;;;-3.74;100.00;98878.78;5034048;28;20415;-80
2021/12/09 07:16:25;;;;;;;79.25;36.58;;;;;;;-3.77;100.00;98887.25;5034075;28;20042;-79
2021/12/09 07:19:10;;;;;;;87.72;40.50;;;;;;;-3.66;100.00;98888.31;5034059;28;20045;-80
2021/12/09 07:21:54;;;;;;;94.68;44.63;;;;;;;-3.86;100.00;98905.91;5033997;28;20041;-79
2021/12/09 07:24:38;;;;;;;106.05;52.13;;;;;;;-3.63;100.00;98915.69;5033944;28;20038;-79
2021/12/09 07:27:22;;;;;;;102.03;53.53;;;;;;;-3.64;100.00;98924.16;5034716;28;20457;-79
2021/12/09 07:30:09;;;;;;;109.53;50.17;;;;;;;-3.64;100.00;98919.94;5034201;28;20049;-80
2021/12/09 07:32:53;;;;;;;91.93;42.53;;;;;;;-3.68;100.00;98913.03;5019906;28;20065;-79
2021/12/09 07:35:39;;;;;;;84.05;40.45;;;;;;;-3.50;100.00;98907.38;5034415;28;20424;-79
2021/12/09 07:38:23;;;;;;;212.07;92.95;;;;;;;-3.41;100.00;98909.19;5033723;28;20049;-80
2021/12/09 07:41:08;;;;;;;405.33;189.45;;;;;;;-3.42;100.00;98907.47;5033592;28;20469;-79
2021/12/09 07:43:52;;;;;;;178.52;83.97;;;;;;;-3.46;100.00;98891.22;5034700;28;20046;-80
2021/12/09 07:46:36;;;;;;;164.52;74.15;;;;;;;-3.33;100.00;98899.97;5033557;28;20064;-80
2021/12/09 07:49:22;;;;;;;65.65;32.58;;;;;;;-3.31;100.00;98903.41;5034334;28;20324;-80
2021/12/09 07:52:07;;;;;;;197.50;93.43;;;;;;;-3.47;100.00;98909.97;5033619;28;20057;-80
2021/12/09 07:54:51;;;;;;;110.63;49.47;;;;;;;-3.39;100.00;98910.97;5034168;28;20066;-80
2021/12/09 07:57:36;;;;;;;69.78;33.10;;;;;;;-3.39;100.00;98903.28;5019617;28;20050;-80
2021/12/09 08:00:26;;;;;;;66.50;31.70;;;;;;;-3.32;100.00;98897.41;5034160;28;20351;-80
2021/12/09 08:03:11;;;;;;;67.32;31.95;;;;;;;-3.24;100.00;98886.44;5033348;28;20041;-80
2021/12/09 08:05:57;;;;;;;59.90;27.63;;;;;;;-3.27;100.00;98902.63;5034148;28;20064;-80
2021/12/09 08:08:46;;;;;;;73.00;30.75;;;;;;;-3.17;100.00;98904.47;5089282;28;20049;-80
2021/12/09 08:11:33;;;;;;;76.25;34.28;;;;;;;-2.94;100.00;98902.25;5019330;28;20045;-80
2021/12/09 08:14:19;;;;;;;71.78;36.00;;;;;;;-2.97;100.00;98894.53;5033990;28;20048;-79
2021/12/09 08:17:33;;;;;;;58.28;29.02;;;;;;;-3.13;100.00;98879.75;5033257;28;20041;-80
2021/12/09 08:20:16;;;;;;;66.43;29.13;;;;;;;-2.95;100.00;98899.69;5033744;28;20057;-80
2021/12/09 08:23:00;;;;;;;59.90;27.23;;;;;;;-2.95;100.00;98900.53;5019227;28;20067;-80
2021/12/09 08:25:47;;;;;;;65.80;30.40;;;;;;;-2.83;100.00;98893.03;5032856;28;20037;-80
2021/12/09 08:28:31;;;;;;;72.15;30.83;;;;;;;-2.85;100.00;98893.84;5018785;28;20431;-80
2021/12/09 08:31:15;;;;;;;72.18;32.63;;;;;;;-2.93;100.00;98903.97;5033505;28;20056;-80
2021/12/09 08:34:02;;;;;;;73.47;30.67;;;;;;;-2.80;100.00;98907.56;5032933;28;20042;-80
2021/12/09 08:36:48;;;;;;;86.28;37.58;;;;;;;-2.62;100.00;98912.97;5033761;28;20060;-79
2021/12/09 08:39:34;;;;;;;66.70;30.73;;;;;;;-2.55;100.00;98911.34;5019729;28;20103;-79
2021/12/09 08:42:19;;;;;;;71.57;32.72;;;;;;;-2.54;100.00;98907.91;5033084;28;20067;-80
2021/12/09 08:45:06;;;;;;;62.97;28.70;;;;;;;-2.47;100.00;98919.13;5033004;28;20042;-80
2021/12/09 08:47:50;;;;;;;64.03;28.30;;;;;;;-2.49;100.00;98914.00;5034023;28;20045;-80
2021/12/09 08:50:36;;;;;;;63.78;30.40;;;;;;;-2.54;100.00;98909.63;5033610;28;20076;-80
2021/12/09 08:53:23;;;;;;;58.65;30.45;;;;;;;-2.61;100.00;98921.50;5033274;28;20037;-80
2021/12/09 08:56:08;;;;;;;59.47;27.35;;;;;;;-2.64;100.00;98917.19;5033299;28;20079;-80
2021/12/09 08:58:53;;;;;;;53.10;26.10;;;;;;;-2.60;100.00;98920.66;5033620;28;20041;-80
2021/12/09 09:01:38;;;;;;;50.80;25.52;;;;;;;-2.53;100.00;98911.38;5033491;28;20049;-80
2021/12/09 09:04:22;;;;;;;64.28;28.30;;;;;;;-2.39;100.00;98923.53;5033434;28;20045;-80
2021/12/09 09:07:07;;;;;;;59.15;29.02;;;;;;;-2.31;100.00;98921.03;5019460;28;20042;-80
2021/12/09 09:09:52;;;;;;;62.83;29.00;;;;;;;-2.24;100.00;98912.59;5033475;28;20050;-80
2021/12/09 09:12:37;;;;;;;59.47;28.10;;;;;;;-2.15;100.00;98904.13;5032443;28;20455;-80
2021/12/09 09:15:25;;;;;;;55.92;27.80;;;;;;;-2.27;100.00;98902.28;5033755;28;20049;-80
2021/12/09 09:18:10;;;;;;;54.20;27.08;;;;;;;-2.24;100.00;98896.31;5033197;28;20342;-81
2021/12/09 09:20:55;;;;;;;57.25;28.00;;;;;;;-2.42;100.00;98905.53;5018655;28;20056;-80
2021/12/09 09:23:39;;;;;;;68.72;31.27;;;;;;;-2.32;100.00;98918.47;5018456;28;20069;-80
2021/12/09 09:26:23;;;;;;;235.38;76.32;;;;;;;-2.45;100.00;98917.44;5032701;28;20053;-81
2021/12/09 09:29:08;;;;;;;200.02;87.85;;;;;;;-2.33;100.00;98909.06;5033068;28;20422;-80
2021/12/09 09:31:52;;;;;;;77.20;37.90;;;;;;;-2.33;100.00;98904.78;5032884;28;20046;-80
2021/12/09 09:34:37;;;;;;;60.13;30.00;;;;;;;-2.55;100.00;98888.25;5032368;28;20045;-81
2021/12/09 09:37:22;;;;;;;56.72;26.50;;;;;;;-2.61;100.00;98885.63;5032798;28;20041;-81
2021/12/09 09:40:10;;;;;;;61.50;28.73;;;;;;;-2.47;100.00;98883.22;5035279;28;20073;-81
2021/12/09 09:43:02;;;;;;;79.15;36.45;;;;;;;-2.49;100.00;98888.34;5035054;28;20068;-80
2021/12/09 09:45:46;;;;;;;111.97;42.63;;;;;;;-2.49;100.00;98866.97;5034170;28;20091;-80
2021/12/09 09:48:32;;;;;;;75.20;35.35;;;;;;;-2.29;100.00;98885.16;5034505;28;20046;-80
2021/12/09 09:51:19;;;;;;;96.53;44.45;;;;;;;-2.32;100.00;98887.69;5033938;28;20056;-80
2021/12/09 09:54:05;;;;;;;155.63;79.85;;;;;;;-2.08;100.00;98884.53;5033351;28;20048;-80
2021/12/09 09:56:49;;;;;;;512.08;228.95;;;;;;;-2.02;100.00;98875.19;5035686;28;20038;-80
2021/12/09 09:59:35;;;;;;;331.52;168.80;;;;;;;-2.07;100.00;98874.28;5022094;28;20099;-81
2021/12/09 10:02:19;;;;;;;288.17;146.32;;;;;;;-2.07;100.00;98870.88;5021737;28;20041;-81
2021/12/09 10:05:07;;;;;;;97.53;49.97;;;;;;;-1.93;100.00;98853.88;5035382;28;20392;-81
2021/12/09 10:07:51;;;;;;;73.47;33.13;;;;;;;-2.02;100.00;98854.66;5035971;28;20076;-80
2021/12/09 10:10:36;;;;;;;80.95;40.08;;;;;;;-1.86;100.00;98862.50;5035952;28;20161;-81
2021/12/09 10:13:31;;;;;;;156.73;67.15;;;;;;;-2.00;100.00;98859.81;5035138;28;20125;-81
2021/12/09 10:16:27;;;;;;;112.45;50.33;;;;;;;-1.75;100.00;98858.34;5036400;28;20052;-81
2021/12/09 10:19:21;;;;;;;89.30;40.67;;;;;;;-1.72;100.00;98863.53;5035669;28;20052;-81
2021/12/09 10:22:12;;;;;;;91.05;39.80;;;;;;;-1.78;100.00;98871.16;5035769;28;20101;-81
2021/12/09 10:24:58;;;;;;;75.20;36.40;;;;;;;-1.78;100.00;98874.59;5035630;28;20046;-81
2021/12/09 10:27:45;;;;;;;66.22;32.25;;;;;;;-1.92;100.00;98866.75;5021606;28;20094;-81
2021/12/09 10:30:30;;;;;;;66.00;32.70;;;;;;;-2.02;100.00;98857.22;5035525;28;20051;-81
2021/12/09 10:33:22;;;;;;;61.95;29.98;;;;;;;-1.94;100.00;98850.47;5036127;28;20380;-81
2021/12/09 10:36:06;;;;;;;60.55;30.08;;;;;;;-2.00;100.00;98849.56;5034856;28;20046;-81
2021/12/09 10:38:50;;;;;;;60.35;32.72;;;;;;;-2.03;100.00;98863.22;5035458;28;20102;-81
2021/12/09 10:41:34;;;;;;;64.72;31.80;;;;;;;-1.90;100.00;98849.66;5039129;28;20038;-81
2021/12/09 10:44:32;;;;;;;62.83;29.33;;;;;;;-1.91;100.00;98854.78;5037139;28;20049;-81
2021/12/09 10:47:24;;;;;;;93.18;43.28;;;;;;;-1.75;100.00;98846.38;5036430;28;20045;-80
2021/12/09 10:50:29;;;;;;;86.75;42.95;;;;;;;-1.80;100.00;98850.59;5036932;28;20355;-80
2021/12/09 10:56:10;;;;;;;143.73;45.92;;;;;;;-1.63;100.00;98825.06;5036620;28;20046;-80
2021/12/09 10:58:55;;;;;;;72.80;31.65;;;;;;;-1.71;100.00;98825.00;5035260;28;20038;-81
2021/12/09 11:01:40;;;;;;;65.07;31.88;;;;;;;-1.67;100.00;98829.31;5035532;28;20045;-80
2021/12/09 11:04:24;;;;;;;62.25;33.45;;;;;;;-1.79;100.00;98824.06;5021130;28;20041;-81
2021/12/09 11:07:28;;;;;;;64.43;32.10;;;;;;;-1.71;100.00;98807.03;5034121;28;20041;-80
2021/12/09 11:10:23;;;;;;;60.33;29.70;;;;;;;-1.73;100.00;98811.28;5035779;28;20057;-80
2021/12/09 11:13:08;;;;;;;68.57;31.73;;;;;;;-1.83;100.00;98798.38;5061313;27;20052;-81
2021/12/09 11:15:55;;;;;;;58.28;29.67;;;;;;;-1.67;100.00;98795.06;5054122;28;20051;-80
2021/12/09 11:18:44;;;;;;;61.05;29.65;;;;;;;-1.83;100.00;98791.50;5038245;28;20041;-81
2021/12/09 11:21:33;;;;;;;71.55;34.50;;;;;;;-1.72;100.00;98779.63;5052364;28;20128;-81
2021/12/09 11:24:20;;;;;;;82.00;42.83;;;;;;;-2.00;100.00;98772.56;5052270;28;20045;-81
2021/12/09 11:27:10;;;;;;;68.88;37.53;;;;;;;-1.82;100.00;98782.09;5052564;28;20379;-81
2021/12/09 11:30:04;;;;;;;60.60;31.15;;;;;;;-1.78;100.00;98771.88;5053818;28;20060;-81
2021/12/09 11:33:00;;;;;;;66.05;33.03;;;;;;;-1.63;100.00;98790.81;5052247;28;20073;-81
2021/12/09 11:35:44;;;;;;;60.60;30.40;;;;;;;-1.76;100.00;98785.56;5052928;28;20348;-81
2021/12/09 11:38:45;;;;;;;61.83;29.42;;;;;;;-1.83;100.00;98790.66;5053365;28;20045;-80
2021/12/09 11:41:34;;;;;;;60.95;30.35;;;;;;;-1.97;100.00;98788.84;5056055;28;20041;-80
2021/12/09 11:44:19;;;;;;;63.78;29.23;;;;;;;-2.04;100.00;98787.06;5054105;28;20052;-81
2021/12/09 11:47:04;;;;;;;71.53;36.70;;;;;;;-1.78;100.00;98791.56;5054325;28;20331;-81
2021/12/09 11:49:51;;;;;;;67.40;30.52;;;;;;;-1.69;100.00;98789.06;5053504;28;20049;-81
2021/12/09 11:52:37;;;;;;;67.88;33.35;;;;;;;-1.59;100.00;98793.44;5054060;28;20049;-81
2021/12/09 11:55:29;;;;;;;108.90;45.47;;;;;;;-1.49;100.00;98799.50;5054145;28;20041;-81
2021/12/09 11:58:23;;;;;;;127.07;55.38;;;;;;;-1.76;100.00;98797.56;5054181;28;20044;-81
2021/12/09 12:11:06;;;;;;;88.90;41.63;;;;;;;-1.16;100.00;98786.00;5054533;28;20109;-80
2021/12/09 12:11:28;;;;;;;106.82;43.67;;;;;;;-1.34;100.00;98784.16;5053777;28;20118;-80
2021/12/09 12:14:35;;;;;;;72.53;34.35;;;;;;;-1.45;100.00;98768.69;5054436;28;20097;-80
2021/12/09 12:17:37;;;;;;;66.85;31.05;;;;;;;-1.51;100.00;98785.78;5051884;28;20339;-80
2021/12/09 12:20:41;;;;;;;60.67;29.52;;;;;;;-1.74;100.00;98773.63;5053033;28;20047;-80
2021/12/09 12:39:14;;;;;;;61.00;29.27;;;;;;;-1.51;100.00;98791.78;5043364;28;20439;-80
2021/12/09 12:42:05;;;;;;;74.50;34.05;;;;;;;-1.74;100.00;98794.16;5052590;28;20048;-80
2021/12/09 12:45:08;;;;;;;87.43;41.78;;;;;;;-1.77;100.00;98804.41;5052688;28;20057;-80
2021/12/09 12:51:14;;;;;;;109.32;47.55;;;;;;;-1.70;100.00;98798.47;5053861;28;20041;-80
2021/12/09 12:54:10;;;;;;;122.95;54.28;;;;;;;-1.58;100.00;98810.56;5053403;28;20041;-80
2021/12/09 12:56:58;;;;;;;93.40;43.70;;;;;;;-1.67;100.00;98798.50;5053501;28;20426;-80
2021/12/09 12:59:46;;;;;;;96.07;44.25;;;;;;;-1.68;100.00;98790.78;5052726;28;20106;-80
2021/12/09 13:05:56;;;;;;;88.50;42.10;;;;;;;-1.84;100.00;98794.94;5053349;28;20052;-80
2021/12/09 13:11:45;;;;;;;85.00;39.97;;;;;;;-1.66;100.00;98815.66;5053286;28;20045;-80
2021/12/09 13:14:33;;;;;;;73.00;35.38;;;;;;;-1.69;100.00;98800.22;5052898;28;20048;-80
2021/12/09 13:17:39;;;;;;;93.38;42.35;;;;;;;-1.63;100.00;98799.38;5052902;28;20048;-80